createdAt,value
2022-08-07T00:02:35.609Z,78.13
2022-08-07T00:04:09.612Z,77.79
2022-08-07T00:06:51.120Z,77.72
2022-08-07T00:09:21.139Z,77.43
2022-08-07T00:11:56.166Z,77.19
2022-08-07T00:14:29.851Z,76.85
2022-08-07T00:16:59.431Z,76.68
2022-08-07T00:19:34.284Z,76.40
2022-08-07T00:22:24.657Z,75.94
2022-08-07T00:25:06.968Z,75.92
2022-08-07T00:27:51.933Z,76.20
2022-08-07T00:30:28.171Z,75.50
2022-08-07T00:32:59.058Z,75.16
2022-08-07T00:35:27.370Z,74.89
2022-08-07T00:37:56.989Z,74.78
2022-08-07T00:40:39.655Z,74.62
2022-08-07T00:43:10.575Z,74.46
2022-08-07T00:45:56.148Z,74.29
2022-08-07T00:48:24.913Z,74.16
2022-08-07T00:50:58.318Z,73.77
2022-08-07T00:53:26.857Z,73.44
2022-08-07T00:56:13.704Z,73.43
2022-08-07T00:58:46.872Z,73.60
2022-08-07T01:01:14.018Z,73.61
2022-08-07T01:03:57.020Z,73.26
2022-08-07T01:06:29.639Z,73.18
2022-08-07T01:08:59.341Z,72.95
2022-08-07T01:12:09.489Z,72.35
2022-08-07T01:14:16.823Z,72.76
2022-08-07T01:16:46.987Z,72.30
2022-08-07T01:19:19.110Z,72.19
2022-08-07T01:21:48.382Z,72.68
2022-08-07T01:24:18.681Z,72.35
2022-08-07T01:26:53.732Z,72.67
2022-08-07T01:29:24.171Z,72.87
2022-08-07T01:31:55.803Z,72.98
2022-08-07T01:34:30.843Z,72.81
2022-08-07T01:36:58.577Z,73.17
2022-08-07T01:39:40.886Z,73.42
2022-08-07T01:42:38.493Z,73.18
2022-08-07T01:45:02.664Z,73.61
2022-08-07T01:48:17.659Z,74.22
2022-08-07T01:50:16.725Z,74.22
2022-08-07T01:52:54.896Z,73.95
2022-08-07T01:55:26.847Z,73.65
2022-08-07T01:58:05.531Z,73.80
2022-08-07T02:00:38.772Z,73.82
2022-08-07T02:03:21.993Z,73.81
2022-08-07T02:06:32.194Z,73.31
2022-08-07T02:09:00.373Z,73.35
2022-08-07T02:11:57.688Z,73.04
2022-08-07T02:14:36.291Z,72.62
2022-08-07T02:17:02.615Z,73.28
2022-08-07T02:20:07.155Z,73.80
2022-08-07T02:22:21.174Z,73.93
2022-08-07T02:24:54.720Z,73.75
2022-08-07T02:27:25.215Z,73.24
2022-08-07T02:29:54.674Z,73.71
2022-08-07T02:32:23.324Z,74.35
2022-08-07T02:34:52.734Z,74.64
2022-08-07T02:37:20.905Z,74.58
2022-08-07T02:40:02.316Z,74.73
2022-08-07T02:42:37.086Z,75.04
2022-08-07T02:45:55.908Z,75.49
2022-08-07T02:47:53.696Z,75.34
2022-08-07T02:50:20.941Z,76.08
2022-08-07T02:53:03.406Z,76.41
2022-08-07T02:56:02.393Z,76.54
2022-08-07T02:58:33.331Z,76.47
2022-08-07T03:01:01.996Z,76.37
2022-08-07T03:03:49.263Z,76.68
2022-08-07T03:06:32.041Z,76.38
2022-08-07T03:09:02.328Z,76.41
2022-08-07T03:11:32.922Z,76.38
2022-08-07T03:14:06.387Z,76.15
2022-08-07T03:16:34.786Z,76.40
2022-08-07T03:19:02.267Z,76.61
2022-08-07T03:21:33.207Z,76.18
2022-08-07T03:24:18.220Z,76.54
2022-08-07T03:26:58.444Z,76.22
2022-08-07T03:29:36.779Z,76.18
2022-08-07T03:32:07.476Z,76.26
2022-08-07T03:34:47.540Z,76.00
2022-08-07T03:37:32.635Z,76.06
2022-08-07T03:40:14.948Z,75.54
2022-08-07T03:42:43.818Z,74.78
2022-08-07T03:45:12.000Z,74.88
2022-08-07T03:47:48.150Z,74.55
2022-08-07T03:50:23.028Z,74.76
2022-08-07T03:52:52.184Z,74.67
2022-08-07T03:55:18.999Z,74.53
2022-08-07T03:58:34.297Z,74.32
2022-08-07T04:00:36.643Z,73.81
2022-08-07T04:03:05.239Z,73.76
2022-08-07T04:05:39.358Z,73.63
2022-08-07T04:08:11.042Z,73.04
2022-08-07T04:10:38.971Z,73.16
2022-08-07T04:13:07.758Z,72.92
2022-08-07T04:15:43.656Z,72.81
2022-08-07T04:18:56.327Z,72.91
2022-08-07T04:21:02.970Z,72.43
2022-08-07T04:23:43.774Z,72.39
2022-08-07T04:26:21.867Z,72.55
2022-08-07T04:28:48.882Z,73.04
2022-08-07T04:31:20.284Z,71.65
2022-08-07T04:34:03.028Z,71.73
2022-08-07T04:36:29.725Z,71.96
2022-08-07T04:38:56.724Z,71.33
2022-08-07T04:41:24.928Z,71.16
2022-08-07T04:44:12.515Z,70.75
2022-08-07T04:47:04.800Z,70.48
2022-08-07T04:49:57.344Z,70.58
2022-08-07T04:52:30.147Z,70.13
2022-08-07T04:55:15.199Z,69.92
2022-08-07T04:58:14.031Z,69.28
2022-08-07T05:00:59.273Z,69.25
2022-08-07T05:04:07.064Z,69.22
2022-08-07T05:06:54.831Z,68.56
2022-08-07T05:09:46.157Z,68.41
2022-08-07T05:12:26.803Z,67.49
2022-08-07T05:15:04.025Z,67.83
2022-08-07T05:17:52.529Z,67.83
2022-08-07T05:20:25.752Z,67.46
2022-08-07T05:22:56.753Z,67.68
2022-08-07T05:26:01.928Z,67.67
2022-08-07T05:28:20.254Z,66.88
2022-08-07T05:30:52.353Z,66.92
2022-08-07T05:33:21.336Z,67.04
2022-08-07T05:35:50.896Z,66.91
2022-08-07T05:38:58.069Z,66.43
2022-08-07T05:41:12.274Z,66.91
2022-08-07T05:44:08.415Z,66.42
2022-08-07T05:46:36.273Z,66.05
2022-08-07T05:49:12.078Z,66.16
2022-08-07T05:51:46.240Z,66.05
2022-08-07T05:54:30.982Z,65.92
2022-08-07T05:57:02.641Z,65.79
2022-08-07T05:59:38.749Z,66.10
2022-08-07T06:02:28.885Z,65.88
2022-08-07T06:05:01.918Z,66.25
2022-08-07T06:08:13.648Z,65.86
2022-08-07T06:10:18.598Z,66.09
2022-08-07T06:12:45.680Z,65.87
2022-08-07T06:15:16.036Z,66.09
2022-08-07T06:17:53.870Z,66.33
2022-08-07T06:20:25.642Z,66.69
2022-08-07T06:23:02.237Z,66.27
2022-08-07T06:25:54.723Z,66.58
2022-08-07T06:28:27.239Z,66.50
2022-08-07T06:30:55.653Z,65.73
2022-08-07T06:33:22.935Z,65.38
2022-08-07T06:36:12.839Z,65.21
2022-08-07T06:38:36.793Z,64.75
2022-08-07T06:41:13.241Z,65.17
2022-08-07T06:43:46.657Z,65.33
2022-08-07T06:46:31.528Z,65.10
2022-08-07T06:49:04.370Z,65.05
2022-08-07T06:51:34.883Z,65.15
2022-08-07T06:55:29.298Z,65.08
2022-08-07T06:56:51.658Z,65.38
2022-08-07T07:00:12.758Z,65.53
2022-08-07T07:02:49.097Z,65.18
2022-08-07T07:05:09.566Z,64.31
2022-08-07T07:07:59.183Z,64.69
2022-08-07T07:10:33.396Z,64.37
2022-08-07T07:13:10.022Z,63.77
2022-08-07T07:15:44.775Z,64.41
2022-08-07T07:18:46.997Z,64.30
2022-08-07T07:21:22.091Z,64.36
2022-08-07T07:24:09.694Z,64.46
2022-08-07T07:26:40.481Z,64.05
2022-08-07T07:29:56.880Z,63.71
2022-08-07T07:32:03.368Z,63.83
2022-08-07T07:34:32.826Z,63.83
2022-08-07T07:37:05.545Z,64.04
2022-08-07T07:39:54.380Z,63.17
2022-08-07T07:42:32.499Z,62.25
2022-08-07T07:45:05.747Z,61.60
2022-08-07T07:47:42.858Z,60.86
2022-08-07T07:50:32.821Z,60.98
2022-08-07T07:53:05.188Z,60.91
2022-08-07T07:55:45.728Z,60.54
2022-08-07T07:58:22.433Z,59.43
2022-08-07T08:00:54.008Z,58.57
2022-08-07T08:04:09.593Z,56.60
2022-08-07T08:06:11.588Z,54.98
2022-08-07T08:08:42.105Z,54.76
2022-08-07T08:11:13.838Z,54.97
2022-08-07T08:13:54.484Z,54.25
2022-08-07T08:16:29.861Z,55.02
2022-08-07T08:19:00.444Z,55.37
2022-08-07T08:22:03.153Z,55.95
2022-08-07T08:25:04.835Z,55.44
2022-08-07T08:27:44.003Z,56.13
2022-08-07T08:30:25.862Z,56.29
2022-08-07T08:32:59.664Z,57.27
2022-08-07T08:35:39.427Z,57.25
2022-08-07T08:38:17.084Z,57.60
2022-08-07T08:40:54.844Z,57.43
2022-08-07T08:43:42.886Z,57.24
2022-08-07T08:47:05.175Z,56.69
2022-08-07T08:50:05.168Z,55.63
2022-08-07T08:52:51.394Z,56.31
2022-08-07T08:55:54.532Z,55.63
2022-08-07T08:58:36.975Z,56.42
2022-08-07T09:01:22.566Z,56.72
2022-08-07T09:04:11.246Z,55.98
2022-08-07T09:07:22.945Z,55.87
2022-08-07T09:09:59.843Z,55.72
2022-08-07T09:12:32.891Z,55.73
2022-08-07T09:16:22.034Z,55.28
2022-08-07T09:18:16.871Z,55.77
2022-08-07T09:21:57.671Z,55.52
2022-08-07T09:24:31.902Z,54.91
2022-08-07T09:27:16.562Z,54.17
2022-08-07T09:30:07.526Z,53.30
2022-08-07T09:32:49.745Z,52.55
2022-08-07T09:36:03.158Z,50.92
2022-08-07T09:38:56.087Z,50.81
2022-08-07T09:41:58.953Z,51.73
2022-08-07T09:44:52.039Z,50.98
2022-08-07T09:47:58.181Z,52.10
2022-08-07T09:50:35.360Z,51.32
2022-08-07T09:53:04.774Z,50.89
2022-08-07T09:56:03.989Z,50.04
2022-08-07T09:59:29.639Z,49.14
2022-08-07T10:02:33.031Z,49.94
2022-08-07T10:05:14.752Z,48.65
2022-08-07T10:08:00.982Z,49.02
2022-08-07T10:14:11.247Z,48.51
2022-08-07T10:16:49.905Z,48.49
2022-08-07T10:19:31.683Z,46.78
2022-08-07T10:22:24.997Z,46.87
2022-08-07T10:25:44.613Z,46.46
2022-08-07T10:28:23.701Z,46.16
2022-08-07T10:31:11.308Z,46.50
2022-08-07T10:34:14.591Z,46.11
2022-08-07T10:37:14.395Z,46.19
2022-08-07T10:40:05.602Z,46.11
2022-08-07T10:42:57.310Z,46.48
2022-08-07T10:45:57.185Z,46.83
2022-08-07T10:48:48.736Z,47.19
2022-08-07T10:51:39.079Z,47.26
2022-08-07T10:54:28.946Z,48.07
2022-08-07T10:57:34.659Z,47.60
2022-08-07T11:00:36.186Z,47.86
2022-08-07T11:03:11.172Z,47.57
2022-08-07T11:06:18.223Z,47.78
2022-08-07T11:09:02.919Z,47.31
2022-08-07T11:11:43.623Z,46.51
2022-08-07T11:14:56.582Z,46.39
2022-08-07T11:17:43.066Z,46.35
2022-08-07T11:20:30.025Z,45.57
2022-08-07T11:23:30.401Z,45.85
2022-08-07T11:26:14.606Z,45.83
2022-08-07T11:28:53.480Z,45.60
2022-08-07T11:31:41.275Z,45.66
2022-08-07T11:34:31.235Z,45.80
2022-08-07T11:37:24.392Z,45.23
2022-08-07T11:40:18.973Z,45.76
2022-08-07T11:42:54.055Z,46.19
2022-08-07T11:45:53.840Z,46.32
2022-08-07T11:48:53.990Z,45.39
2022-08-07T11:51:57.001Z,45.91
2022-08-07T11:54:42.184Z,45.32
2022-08-07T11:58:02.802Z,45.27
2022-08-07T12:00:53.694Z,45.20
2022-08-07T12:03:49.889Z,44.96
2022-08-07T12:06:40.212Z,45.15
2022-08-07T12:09:36.583Z,45.49
2022-08-07T12:12:10.294Z,44.79
2022-08-07T12:14:56.192Z,44.98
2022-08-07T12:17:55.973Z,44.37
2022-08-07T12:20:36.416Z,44.78
2022-08-07T12:24:05.632Z,45.25
2022-08-07T12:26:40.499Z,44.75
2022-08-07T12:29:37.160Z,44.78
2022-08-07T12:32:29.969Z,45.51
2022-08-07T12:34:59.551Z,46.01
2022-08-07T12:38:09.261Z,46.10
2022-08-07T12:40:47.481Z,46.48
2022-08-07T12:44:03.586Z,45.99
2022-08-07T12:46:32.674Z,46.13
2022-08-07T12:49:39.837Z,45.52
2022-08-07T12:52:28.963Z,45.70
2022-08-07T12:55:17.906Z,45.94
2022-08-07T12:57:59.206Z,45.65
2022-08-07T13:00:50.145Z,46.12
2022-08-07T13:03:59.138Z,45.90
2022-08-07T13:07:00.500Z,46.22
2022-08-07T13:10:29.189Z,46.67
2022-08-07T13:13:48.669Z,46.88
2022-08-07T13:16:16.078Z,46.57
2022-08-07T13:19:01.781Z,47.19
2022-08-07T13:21:51.125Z,46.95
2022-08-07T13:24:21.090Z,46.96
2022-08-07T13:27:15.258Z,47.12
2022-08-07T13:29:58.709Z,46.37
2022-08-07T13:32:55.234Z,45.94
2022-08-07T13:36:01.355Z,45.80
2022-08-07T13:38:45.343Z,46.13
2022-08-07T13:41:32.021Z,46.04
2022-08-07T13:44:05.112Z,46.24
2022-08-07T13:46:49.621Z,46.09
2022-08-07T13:50:34.719Z,45.85
2022-08-07T13:52:30.670Z,45.35
2022-08-07T13:55:00.784Z,45.32
2022-08-07T13:57:38.217Z,45.14
2022-08-07T14:00:08.485Z,45.69
2022-08-07T14:02:57.294Z,45.40
2022-08-07T14:05:37.279Z,45.96
2022-08-07T14:08:08.013Z,46.12
2022-08-07T14:10:41.930Z,46.29
2022-08-07T14:13:16.646Z,45.87
2022-08-07T14:15:52.225Z,46.04
2022-08-07T14:18:30.438Z,46.67
2022-08-07T14:21:20.831Z,47.18
2022-08-07T14:24:13.401Z,46.41
2022-08-07T14:26:51.256Z,46.14
2022-08-07T14:30:08.194Z,45.69
2022-08-07T14:32:12.679Z,45.85
2022-08-07T14:34:47.105Z,46.17
2022-08-07T14:37:16.827Z,45.99
2022-08-07T14:40:15.885Z,46.02
2022-08-07T14:43:00.628Z,46.14
2022-08-07T14:45:25.912Z,46.48
2022-08-07T14:48:19.945Z,46.72
2022-08-07T14:50:58.010Z,46.85
2022-08-07T14:54:05.643Z,46.35
2022-08-07T14:56:30.026Z,46.26
2022-08-07T14:59:02.119Z,46.45
2022-08-07T15:01:42.802Z,45.94
2022-08-07T15:04:18.904Z,44.87
2022-08-07T15:06:49.666Z,45.44
2022-08-07T15:12:26.233Z,46.41
2022-08-07T15:15:21.079Z,46.44
2022-08-07T15:17:56.937Z,46.90
2022-08-07T15:20:35.686Z,47.34
2022-08-07T15:25:13.406Z,47.15
2022-08-07T15:30:08.407Z,47.22
2022-08-07T15:32:01.443Z,47.22
2022-08-07T15:34:50.806Z,47.60
2022-08-07T15:38:04.515Z,46.98
2022-08-07T15:40:35.044Z,48.09
2022-08-07T15:43:10.838Z,47.59
2022-08-07T15:46:04.504Z,48.01
2022-08-07T15:48:36.268Z,47.70
2022-08-07T15:54:13.954Z,48.05
2022-08-07T15:56:42.632Z,47.77
2022-08-07T15:59:16.557Z,47.95
2022-08-07T16:02:02.058Z,48.37
2022-08-07T16:04:33.512Z,48.32
2022-08-07T16:07:05.051Z,48.24
2022-08-07T16:09:57.187Z,48.37
2022-08-07T16:13:05.516Z,49.04
2022-08-07T16:15:55.466Z,48.42
2022-08-07T16:18:49.370Z,49.02
2022-08-07T16:22:01.210Z,48.94
2022-08-07T16:24:52.850Z,48.73
2022-08-07T16:27:39.931Z,49.68
2022-08-07T16:30:31.100Z,49.61
2022-08-07T16:34:01.805Z,49.33
2022-08-07T16:36:31.238Z,49.89
2022-08-07T16:39:33.714Z,49.51
2022-08-07T16:42:25.397Z,50.20
2022-08-07T16:45:15.007Z,50.29
2022-08-07T16:48:28.585Z,50.21
2022-08-07T16:51:54.273Z,50.22
2022-08-07T16:54:21.290Z,51.03
2022-08-07T16:57:03.845Z,50.66
2022-08-07T16:59:46.992Z,50.85
2022-08-07T17:02:53.611Z,50.94
2022-08-07T17:06:02.217Z,50.68
2022-08-07T17:09:04.280Z,50.92
2022-08-07T17:12:03.895Z,50.54
2022-08-07T17:14:53.481Z,51.05
2022-08-07T17:17:45.940Z,51.18
2022-08-07T17:20:22.856Z,50.64
2022-08-07T17:23:02.486Z,50.93
2022-08-07T17:25:51.083Z,51.15
2022-08-07T17:28:31.311Z,51.50
2022-08-07T17:31:16.267Z,51.37
2022-08-07T17:34:15.114Z,52.35
2022-08-07T17:36:58.136Z,51.83
2022-08-07T17:40:03.401Z,52.00
2022-08-07T17:42:58.346Z,50.96
2022-08-07T17:45:58.257Z,51.70
2022-08-07T17:48:32.070Z,51.51
2022-08-07T17:51:23.043Z,51.46
2022-08-07T17:54:11.448Z,51.42
2022-08-07T17:56:49.701Z,51.44
2022-08-07T17:59:39.079Z,51.86
2022-08-07T18:02:14.741Z,52.08
2022-08-07T18:05:02.369Z,51.95
2022-08-07T18:07:59.979Z,52.70
2022-08-07T18:12:08.089Z,52.08
2022-08-07T18:13:48.412Z,52.26
2022-08-07T18:16:32.881Z,52.18
2022-08-07T18:21:06.659Z,51.82
2022-08-07T18:22:17.170Z,52.01
2022-08-07T18:24:51.504Z,52.05
2022-08-07T18:27:39.189Z,52.23
2022-08-07T18:30:32.922Z,52.33
2022-08-07T18:33:34.417Z,52.30
2022-08-07T18:36:14.342Z,52.27
2022-08-07T18:40:06.753Z,52.75
2022-08-07T18:42:16.589Z,52.90
2022-08-07T18:45:42.763Z,52.40
2022-08-07T18:48:00.813Z,53.08
2022-08-07T18:50:56.086Z,53.32
2022-08-07T18:54:30.733Z,53.63
2022-08-07T18:57:30.157Z,53.83
2022-08-07T19:00:32.795Z,54.19
2022-08-07T19:03:11.817Z,53.84
2022-08-07T19:06:03.497Z,54.90
2022-08-07T19:08:37.289Z,54.55
2022-08-07T19:11:34.677Z,55.09
2022-08-07T19:14:19.792Z,54.93
2022-08-07T19:17:04.751Z,55.15
2022-08-07T19:19:51.050Z,55.54
2022-08-07T19:22:31.113Z,55.95
2022-08-07T19:25:06.423Z,56.14
2022-08-07T19:28:30.460Z,55.91
2022-08-07T19:31:03.258Z,56.46
2022-08-07T19:33:16.043Z,56.77
2022-08-07T19:35:46.781Z,56.97
2022-08-07T19:38:19.159Z,57.45
2022-08-07T19:40:51.535Z,57.63
2022-08-07T19:43:43.956Z,58.00
2022-08-07T19:46:15.998Z,58.53
2022-08-07T19:48:53.626Z,58.47
2022-08-07T19:51:50.919Z,58.71
2022-08-07T19:54:32.173Z,59.03
2022-08-07T19:58:02.985Z,58.85
2022-08-07T19:59:58.399Z,59.18
2022-08-07T20:02:30.436Z,59.60
2022-08-07T20:05:00.620Z,59.47
2022-08-07T20:07:45.893Z,59.42
2022-08-07T20:10:37.369Z,59.62
2022-08-07T20:13:23.201Z,59.71
2022-08-07T20:15:52.150Z,59.98
2022-08-07T20:18:32.560Z,60.24
2022-08-07T20:21:02.758Z,59.93
2022-08-07T20:23:43.174Z,60.18
2022-08-07T20:26:15.357Z,60.23
2022-08-07T20:28:59.231Z,60.37
2022-08-07T20:31:27.241Z,60.60
2022-08-07T20:33:56.640Z,60.59
2022-08-07T20:36:27.191Z,60.95
2022-08-07T20:39:11.636Z,60.86
2022-08-07T20:41:50.680Z,60.77
2022-08-07T20:44:18.250Z,60.58
2022-08-07T20:46:48.237Z,60.85
2022-08-07T20:49:59.585Z,61.37
2022-08-07T20:52:24.564Z,61.08
2022-08-07T20:55:11.542Z,61.48
2022-08-07T20:58:02.563Z,61.62
2022-08-07T21:00:46.426Z,61.27
2022-08-07T21:03:25.762Z,60.97
2022-08-07T21:06:21.556Z,61.26
2022-08-07T21:09:01.079Z,61.36
2022-08-07T21:11:46.327Z,61.50
2022-08-07T21:14:33.643Z,61.52
2022-08-07T21:18:03.308Z,61.55
2022-08-07T21:20:05.657Z,61.79
2022-08-07T21:22:39.078Z,61.78
2022-08-07T21:25:17.600Z,61.59
2022-08-07T21:27:47.699Z,61.84
2022-08-07T21:30:23.739Z,61.90
2022-08-07T21:33:23.798Z,62.50
2022-08-07T21:36:31.423Z,62.62
2022-08-07T21:39:48.055Z,62.55
2022-08-07T21:42:37.514Z,63.03
2022-08-07T21:46:03.273Z,63.15
2022-08-07T21:48:28.526Z,63.13
2022-08-07T21:51:08.417Z,63.56
2022-08-07T21:53:53.074Z,63.39
2022-08-07T21:56:47.774Z,63.78
2022-08-07T21:59:26.973Z,64.16
2022-08-07T22:02:10.364Z,64.74
2022-08-07T22:04:53.791Z,65.16
2022-08-07T22:07:42.906Z,65.45
2022-08-07T22:10:24.643Z,66.14
2022-08-07T22:12:59.408Z,66.12
2022-08-07T22:16:44.596Z,66.24
2022-08-07T22:19:27.018Z,66.31
2022-08-07T22:22:28.901Z,66.04
2022-08-07T22:25:12.748Z,65.89
2022-08-07T22:28:07.570Z,65.57
2022-08-07T22:31:31.399Z,65.41
2022-08-07T22:34:15.430Z,65.95
2022-08-07T22:36:52.627Z,67.33
2022-08-07T22:39:52.797Z,73.64
2022-08-07T22:42:54.017Z,71.79
2022-08-07T22:46:04.197Z,73.21
2022-08-07T22:48:13.535Z,74.77
2022-08-07T22:51:27.071Z,74.60
2022-08-07T22:54:49.175Z,75.63
2022-08-07T22:57:34.305Z,74.94
2022-08-07T23:00:12.218Z,73.81
2022-08-07T23:03:09.838Z,73.55
2022-08-07T23:06:14.942Z,73.92
2022-08-07T23:08:51.723Z,73.39
2022-08-07T23:12:10.873Z,73.70
2022-08-07T23:16:04.698Z,72.99
2022-08-07T23:18:42.176Z,72.44
2022-08-07T23:21:09.550Z,73.52
2022-08-07T23:24:05.425Z,73.80
2022-08-07T23:26:58.232Z,73.92
2022-08-07T23:30:35.700Z,73.71
2022-08-07T23:34:22.934Z,73.64
2022-08-07T23:36:03.615Z,74.45
2022-08-07T23:38:54.612Z,73.66
2022-08-07T23:41:47.823Z,74.20
2022-08-07T23:44:53.001Z,73.58
2022-08-07T23:47:42.201Z,73.09
2022-08-07T23:50:19.321Z,72.52
2022-08-07T23:53:02.038Z,71.34
2022-08-07T23:56:06.405Z,71.97
2022-08-07T23:58:49.041Z,72.78
